KSLC/SLC METAR and TAF weather

Enter ICAO airport designator
Station Type Date Time Source
KSLC METAR 2019/11/22 00:54 UTC NOAA

KSLC 220054Z 00000KT 10SM BKN044 BKN075 07/M01 A2999 RMK AO2 SLP148 T00671011


Station Type Date Time Source
KSLC Decoded METAR 2019/11/22 00:54 UTC NOAA

SALT LAKE CITY INTERNATIONAL AIRPORT , UT, United States (KSLC) 40-47N 111-58W 1286M
Nov 21, 2019 - 07:54 PM EST / 2019.11.22 0054 UTC
Wind: Calm:0
Visibility: 10 mile(s):0
Sky conditions: mostly cloudy
Temperature: 44.1 F (6.7 C)
Dew Point: 30.0 F (-1.1 C)
Relative Humidity: 57%
Pressure (altimeter): 29.99 in. Hg (1015 hPa)
ob: KSLC 220054Z 00000KT 10SM BKN044 BKN075 07/M01 A2999 RMK AO2 SLP148 T00671011
cycle: 1

Station Type Date Time Source
KSLC TAF 2019/11/21 21:59 UTC NOAA

TAF
AMD KSLC 212059Z 2121/2224 35007KT P6SM SCT040 BKN110
FM220700 15005KT P6SM SCT050 BKN200
FM221900 32007KT P6SM SCT060 BKN150

Example: see airport list